Time;durP1;ratioP1;P1;durP2;ratioP2;P2;SDS_P1;SDS_P2;PMS_P1;PMS_P2;Temp;Humidity;BMP_temperature;BMP_pressure;BME280_temperature;BME280_humidity;BME280_pressure;Samples;Min_cycle;Max_cycle;Signal;HPM_P1;HPM_P2
2022/12/27 00:02:04;;;;;;;116.90;78.03;;;12.10;99.90;;;;;;5052648;28;20033;-70
2022/12/27 00:04:30;;;;;;;129.20;83.57;;;12.10;99.90;;;;;;5038555;28;20472;-70
2022/12/27 00:06:56;;;;;;;140.05;93.63;;;12.00;99.90;;;;;;5042818;28;20087;-70
2022/12/27 00:09:22;;;;;;;138.88;92.82;;;12.00;99.90;;;;;;5028419;28;20028;-71
2022/12/27 00:11:48;;;;;;;146.93;98.22;;;12.00;99.90;;;;;;5032923;28;20025;-72
2022/12/27 00:14:14;;;;;;;146.50;98.07;;;12.00;99.90;;;;;;5049864;28;20028;-71
2022/12/27 00:16:40;;;;;;;153.55;97.35;;;12.00;99.90;;;;;;5052859;28;20041;-77
2022/12/27 00:19:06;;;;;;;148.00;97.65;;;12.00;99.90;;;;;;5052012;28;20025;-72
2022/12/27 00:21:32;;;;;;;141.10;95.95;;;12.00;99.90;;;;;;5052643;28;20052;-71
2022/12/27 00:23:59;;;;;;;141.13;97.00;;;12.10;99.90;;;;;;5052196;28;20048;-70
2022/12/27 00:26:28;;;;;;;142.40;91.90;;;12.10;99.90;;;;;;5044409;28;20029;-72
2022/12/27 00:28:55;;;;;;;131.35;85.05;;;12.10;99.90;;;;;;5050137;28;20082;-73
2022/12/27 00:31:22;;;;;;;117.20;78.47;;;12.10;99.90;;;;;;5060144;28;20033;-72
2022/12/27 00:33:50;;;;;;;107.25;67.13;;;12.10;99.90;;;;;;5052076;28;20132;-71
2022/12/27 00:36:18;;;;;;;87.63;54.72;;;12.10;99.90;;;;;;5034630;28;20094;-71
2022/12/27 00:38:44;;;;;;;78.63;50.83;;;12.10;99.90;;;;;;5039012;28;20112;-71
2022/12/27 00:41:11;;;;;;;82.50;48.53;;;12.10;99.90;;;;;;5052579;28;20346;-70
2022/12/27 00:43:37;;;;;;;81.47;49.25;;;12.20;99.90;;;;;;5049512;28;20036;-71
2022/12/27 00:46:03;;;;;;;71.53;44.78;;;12.10;99.90;;;;;;5056761;28;20029;-70
2022/12/27 00:48:29;;;;;;;62.00;43.17;;;12.10;99.90;;;;;;5052155;28;20547;-75
2022/12/27 00:51:00;;;;;;;71.70;44.63;;;12.10;99.90;;;;;;5051577;28;20021;-69
2022/12/27 00:53:29;;;;;;;68.82;43.60;;;12.10;99.90;;;;;;5048248;28;20017;-71
2022/12/27 00:55:56;;;;;;;69.68;45.53;;;12.10;99.90;;;;;;5052310;28;20037;-71
2022/12/27 00:58:22;;;;;;;65.78;42.25;;;12.20;99.90;;;;;;5054366;28;20377;-71
2022/12/27 01:00:49;;;;;;;55.83;36.25;;;12.20;99.90;;;;;;5049920;28;20055;-71
2022/12/27 01:03:16;;;;;;;49.60;31.25;;;12.20;99.90;;;;;;5045959;28;20366;-71
2022/12/27 01:05:42;;;;;;;47.28;27.27;;;12.20;99.90;;;;;;5054575;28;20059;-71
2022/12/27 01:08:08;;;;;;;40.67;27.73;;;12.20;99.90;;;;;;5053640;28;20060;-70
2022/12/27 01:10:34;;;;;;;27.23;15.52;;;12.20;99.90;;;;;;5055788;28;20025;-71
2022/12/27 01:13:01;;;;;;;21.75;12.57;;;12.20;99.90;;;;;;5055556;28;20021;-72
2022/12/27 01:15:27;;;;;;;20.98;11.00;;;12.30;99.90;;;;;;5055632;28;20032;-70
2022/12/27 01:17:53;;;;;;;17.92;9.43;;;12.40;99.90;;;;;;5054042;28;20029;-71
2022/12/27 01:20:20;;;;;;;16.98;8.68;;;12.40;99.90;;;;;;5048732;28;20103;-71
2022/12/27 01:22:46;;;;;;;19.02;8.38;;;12.50;99.90;;;;;;5055045;28;20138;-73
2022/12/27 01:25:12;;;;;;;13.10;6.90;;;12.70;99.90;;;;;;5055378;28;20573;-71
2022/12/27 01:27:38;;;;;;;12.00;5.93;;;12.90;99.90;;;;;;5055193;28;20097;-78
2022/12/27 01:30:05;;;;;;;8.57;4.53;;;13.00;99.90;;;;;;5036497;28;20055;-71
2022/12/27 01:32:34;;;;;;;9.05;4.15;;;13.10;99.90;;;;;;5043102;28;20032;-71
2022/12/27 01:35:00;;;;;;;9.68;3.92;;;13.30;99.90;;;;;;5054720;28;20040;-72
2022/12/27 01:37:29;;;;;;;6.03;3.47;;;13.50;99.90;;;;;;5029093;28;20193;-73
2022/12/27 01:39:56;;;;;;;7.60;3.13;;;13.50;99.90;;;;;;5050811;28;20423;-71
2022/12/27 01:45:33;;;;;;;5.35;2.70;;;13.70;99.90;;;;;;5048343;28;20022;-74
2022/12/27 01:48:16;;;;;;;6.10;2.88;;;13.90;99.90;;;;;;4968304;28;20046;-72
2022/12/27 01:50:58;;;;;;;5.45;2.83;;;13.90;99.90;;;;;;4965363;28;20483;-73
2022/12/27 01:53:29;;;;;;;4.07;2.63;;;14.00;99.90;;;;;;4973853;28;20122;-71
2022/12/27 01:55:58;;;;;;;6.43;3.13;;;14.10;99.90;;;;;;4973988;28;20137;-70
2022/12/27 01:58:37;;;;;;;5.07;2.30;;;14.20;99.90;;;;;;4967766;28;20039;-70
2022/12/27 02:01:07;;;;;;;5.82;2.70;;;14.10;99.90;;;;;;4973158;28;20054;-71
2022/12/27 02:03:42;;;;;;;5.78;2.72;;;14.20;99.90;;;;;;4973197;28;20041;-71
2022/12/27 02:06:10;;;;;;;4.65;2.00;;;14.20;99.90;;;;;;4956965;28;20039;-71
2022/12/27 02:08:44;;;;;;;2.63;2.10;;;14.40;99.90;;;;;;4972863;28;20518;-70
2022/12/27 02:11:12;;;;;;;5.03;2.80;;;14.50;99.90;;;;;;4978961;28;20421;-72
2022/12/27 02:13:45;;;;;;;6.95;2.90;;;14.40;99.90;;;;;;4976352;28;20070;-72
2022/12/27 02:16:14;;;;;;;3.63;2.17;;;14.40;99.90;;;;;;4973643;28;20152;-71
2022/12/27 02:18:40;;;;;;;6.32;3.15;;;14.50;99.90;;;;;;4973610;28;20030;-76
2022/12/27 02:21:30;;;;;;;5.63;2.45;;;14.50;99.90;;;;;;4964062;28;20060;-71
2022/12/27 02:24:02;;;;;;;5.57;2.53;;;14.50;99.90;;;;;;4975621;28;20523;-72
2022/12/27 02:26:56;;;;;;;4.60;2.17;;;14.60;99.90;;;;;;5047990;28;20033;-72
2022/12/27 02:29:40;;;;;;;5.00;2.20;;;14.60;99.90;;;;;;5043055;28;20461;-71
2022/12/27 02:32:17;;;;;;;4.15;2.20;;;14.60;99.90;;;;;;5040636;28;20032;-70
2022/12/27 02:35:07;;;;;;;3.58;2.10;;;14.60;99.90;;;;;;5054119;28;20108;-71
2022/12/27 02:37:38;;;;;;;5.15;2.47;;;14.50;99.90;;;;;;5054063;28;20040;-71
2022/12/27 02:54:33;;;;;;;7.60;3.47;;;14.00;99.90;;;;;;5051195;28;20051;-70
2022/12/27 02:57:13;;;;;;;7.47;2.95;;;14.00;99.90;;;;;;5045721;28;20563;-71
2022/12/27 03:03:27;;;;;;;6.15;3.38;;;13.90;99.90;;;;;;5040570;28;20033;-73
2022/12/27 03:09:06;;;;;;;7.97;3.78;;;13.80;99.90;;;;;;5053309;28;20032;-71
2022/12/27 03:17:43;;;;;;;12.75;4.90;;;13.40;99.90;;;;;;4979495;28;20042;-70
2022/12/27 03:25:48;;;;;;;12.25;4.70;;;12.90;99.90;;;;;;4991689;28;20128;-70
2022/12/27 03:34:34;;;;;;;11.77;5.88;;;12.50;99.90;;;;;;4979797;28;20054;-71
2022/12/27 03:39:56;;;;;;;10.52;5.75;;;12.40;99.90;;;;;;4984798;28;20121;-73
2022/12/27 03:45:13;;;;;;;12.18;6.22;;;12.30;99.90;;;;;;4991620;28;20045;-77
2022/12/27 03:48:01;;;;;;;12.90;6.00;;;12.30;99.90;;;;;;4991812;28;20034;-71
2022/12/27 03:50:47;;;;;;;12.55;6.70;;;12.30;99.90;;;;;;4991417;28;20046;-70
2022/12/27 03:53:23;;;;;;;12.23;6.15;;;12.30;99.90;;;;;;5050462;28;20021;-71
2022/12/27 03:55:49;;;;;;;12.50;5.95;;;12.10;99.90;;;;;;5040129;28;20099;-71
2022/12/27 03:58:15;;;;;;;13.93;7.70;;;12.00;99.90;;;;;;5052079;28;20476;-73
2022/12/27 04:00:41;;;;;;;14.45;6.40;;;12.00;99.90;;;;;;5052683;28;20115;-71
2022/12/27 04:03:06;;;;;;;14.48;7.72;;;12.00;99.90;;;;;;5052537;28;20412;-71
2022/12/27 04:05:32;;;;;;;14.57;8.30;;;11.90;99.90;;;;;;5052859;28;20082;-73
2022/12/27 04:35:24;;;;;;;22.60;10.73;;;11.80;99.90;;;;;;5056085;28;20550;-70
2022/12/27 04:37:50;;;;;;;19.48;11.38;;;11.80;99.90;;;;;;5056203;28;20460;-70
2022/12/27 04:57:05;;;;;;;19.10;10.63;;;11.80;99.90;;;;;;4981607;28;20442;-70
2022/12/27 05:02:17;;;;;;;19.02;11.60;;;11.80;99.90;;;;;;4985759;28;20038;-71
2022/12/27 05:04:43;;;;;;;18.23;10.88;;;11.80;99.90;;;;;;4991162;28;20573;-71
2022/12/27 05:15:29;;;;;;;16.50;9.77;;;11.80;99.90;;;;;;4986775;28;20034;-70
2022/12/27 05:17:56;;;;;;;18.30;10.32;;;11.70;99.90;;;;;;4998505;28;20108;-72
2022/12/27 05:20:22;;;;;;;20.38;12.05;;;11.70;99.90;;;;;;5052219;28;20029;-71
2022/12/27 05:25:38;;;;;;;23.15;14.73;;;11.70;99.90;;;;;;5052664;28;20036;-73
2022/12/27 05:28:07;;;;;;;25.50;16.48;;;11.70;99.90;;;;;;5055530;28;20098;-71
2022/12/27 05:30:39;;;;;;;25.02;15.32;;;11.70;99.90;;;;;;5055311;28;20033;-71
2022/12/27 05:33:05;;;;;;;28.98;16.45;;;11.70;99.90;;;;;;5055180;28;20116;-73
2022/12/27 05:35:33;;;;;;;20.50;12.40;;;11.80;99.90;;;;;;5054707;28;20357;-71
2022/12/27 05:38:00;;;;;;;23.52;12.32;;;11.70;99.90;;;;;;5037184;28;20025;-71
2022/12/27 05:40:26;;;;;;;20.15;12.50;;;11.70;99.90;;;;;;5055349;28;20492;-71
2022/12/27 05:42:53;;;;;;;19.27;10.38;;;11.70;99.90;;;;;;5054412;28;20120;-71
2022/12/27 05:45:19;;;;;;;18.45;11.40;;;11.70;99.90;;;;;;5023800;28;20017;-71
2022/12/27 05:47:45;;;;;;;19.13;10.20;;;11.80;99.90;;;;;;5054915;28;20392;-73
2022/12/27 05:50:11;;;;;;;19.83;10.20;;;11.80;99.90;;;;;;5041778;28;20024;-74
2022/12/27 05:52:37;;;;;;;16.77;9.90;;;11.70;99.90;;;;;;5054704;28;20021;-72
2022/12/27 05:55:03;;;;;;;19.95;10.35;;;11.80;99.90;;;;;;5041733;28;20389;-76
2022/12/27 05:57:29;;;;;;;19.70;10.55;;;11.80;99.90;;;;;;5041658;28;20041;-72
2022/12/27 05:59:56;;;;;;;19.13;12.02;;;11.80;99.90;;;;;;5054897;28;20017;-72
2022/12/27 06:02:22;;;;;;;19.98;12.57;;;11.80;99.90;;;;;;5041692;28;20037;-75
2022/12/27 06:04:48;;;;;;;19.17;12.57;;;11.80;99.90;;;;;;5054625;28;20013;-72
2022/12/27 06:07:14;;;;;;;21.30;13.10;;;11.80;99.90;;;;;;5054140;28;20476;-71
2022/12/27 06:09:40;;;;;;;20.52;11.38;;;11.70;99.90;;;;;;5041874;28;20013;-71
2022/12/27 06:12:06;;;;;;;20.17;12.95;;;11.60;99.90;;;;;;5054382;28;20037;-72
2022/12/27 06:14:32;;;;;;;34.35;19.40;;;11.60;99.90;;;;;;5041164;28;20036;-75
2022/12/27 06:16:58;;;;;;;76.60;40.75;;;11.60;99.90;;;;;;5044537;28;20038;-71
2022/12/27 06:19:24;;;;;;;48.50;27.42;;;11.60;99.90;;;;;;5050820;28;20029;-76
2022/12/27 06:21:50;;;;;;;44.15;27.10;;;11.60;99.90;;;;;;5054002;28;20057;-75
2022/12/27 06:24:16;;;;;;;27.85;18.67;;;11.50;99.90;;;;;;5054299;28;20087;-71
2022/12/27 06:26:42;;;;;;;28.20;19.23;;;11.50;99.90;;;;;;5053968;28;20029;-71
2022/12/27 06:29:10;;;;;;;28.67;20.15;;;11.60;99.90;;;;;;5054041;28;20017;-76
2022/12/27 06:31:36;;;;;;;29.30;18.30;;;11.60;99.90;;;;;;5052854;28;20070;-71
2022/12/27 06:34:02;;;;;;;28.13;17.50;;;11.50;99.90;;;;;;5051386;28;20489;-71
2022/12/27 06:36:29;;;;;;;27.45;14.98;;;11.50;99.90;;;;;;5053680;28;20485;-76
2022/12/27 06:38:59;;;;;;;25.40;17.38;;;11.50;99.90;;;;;;5053380;28;20107;-72
2022/12/27 06:41:25;;;;;;;23.83;17.73;;;11.50;99.90;;;;;;5054116;28;20036;-70
2022/12/27 06:43:56;;;;;;;25.38;17.42;;;11.50;99.90;;;;;;5053593;28;20453;-71
2022/12/27 06:46:23;;;;;;;25.52;15.38;;;11.50;99.90;;;;;;5053886;28;20079;-71
2022/12/27 06:48:49;;;;;;;25.05;14.98;;;11.50;99.90;;;;;;5053384;28;20449;-73
2022/12/27 06:51:17;;;;;;;21.55;12.82;;;11.50;99.90;;;;;;5053685;28;20029;-71
2022/12/27 06:53:45;;;;;;;16.60;9.63;;;11.50;99.90;;;;;;5040596;28;20338;-70
2022/12/27 06:56:15;;;;;;;20.98;11.57;;;11.50;99.90;;;;;;5045916;28;20040;-71
2022/12/27 06:58:41;;;;;;;17.30;10.45;;;11.50;99.90;;;;;;5051299;28;20431;-71
2022/12/27 07:01:09;;;;;;;19.67;12.02;;;11.50;99.90;;;;;;5025224;28;20469;-71
2022/12/27 07:03:36;;;;;;;19.75;12.80;;;11.40;99.90;;;;;;5051427;28;20025;-71
2022/12/27 07:06:05;;;;;;;27.50;17.13;;;11.40;99.90;;;;;;5053151;28;20508;-71
2022/12/27 07:08:31;;;;;;;25.10;17.27;;;11.40;99.90;;;;;;5052218;28;20472;-71
2022/12/27 07:11:01;;;;;;;27.15;20.25;;;11.30;99.90;;;;;;5035640;28;20392;-70
2022/12/27 07:13:28;;;;;;;30.70;18.15;;;11.40;99.90;;;;;;5053421;28;20536;-71
2022/12/27 07:15:54;;;;;;;27.92;19.40;;;11.40;99.90;;;;;;5053381;28;20021;-72
2022/12/27 07:18:20;;;;;;;26.90;18.70;;;11.40;99.90;;;;;;5052268;28;20365;-71
2022/12/27 07:20:46;;;;;;;26.17;17.15;;;11.40;99.90;;;;;;5034834;28;20033;-71
2022/12/27 07:23:13;;;;;;;28.52;16.70;;;11.40;99.90;;;;;;5053390;28;20071;-71
2022/12/27 07:25:39;;;;;;;23.15;14.32;;;11.40;99.90;;;;;;5053578;28;20040;-75
2022/12/27 07:28:05;;;;;;;26.83;14.75;;;11.40;99.90;;;;;;5052717;28;20017;-72
2022/12/27 07:30:30;;;;;;;23.98;14.40;;;11.40;99.90;;;;;;5053042;28;20500;-73
2022/12/27 07:32:56;;;;;;;29.45;17.52;;;11.40;99.90;;;;;;5052869;28;20365;-71
2022/12/27 07:35:22;;;;;;;27.75;17.88;;;11.30;99.90;;;;;;5052744;28;20465;-72
2022/12/27 07:37:48;;;;;;;36.00;16.65;;;11.30;99.90;;;;;;5053040;28;20032;-72
2022/12/27 07:40:14;;;;;;;29.35;18.90;;;11.40;99.90;;;;;;5050997;28;20017;-71
2022/12/27 07:42:39;;;;;;;28.70;19.30;;;11.40;99.90;;;;;;5053256;28;20040;-71
2022/12/27 07:45:06;;;;;;;34.05;22.17;;;11.40;99.90;;;;;;5052595;28;20054;-71
2022/12/27 07:47:31;;;;;;;32.55;22.63;;;11.30;99.90;;;;;;5053055;28;20029;-72
2022/12/27 07:49:57;;;;;;;30.80;21.15;;;11.30;99.90;;;;;;5033222;28;20381;-72
2022/12/27 07:52:23;;;;;;;29.60;19.50;;;11.20;99.90;;;;;;5052792;28;20060;-74
2022/12/27 07:54:49;;;;;;;55.90;37.55;;;11.10;99.90;;;;;;5052792;28;20021;-71
2022/12/27 07:57:15;;;;;;;46.45;31.08;;;11.20;99.90;;;;;;5053013;28;20041;-75
2022/12/27 07:59:41;;;;;;;52.05;35.25;;;11.20;99.90;;;;;;5052153;28;20021;-71
2022/12/27 08:02:08;;;;;;;50.33;39.28;;;11.20;99.90;;;;;;5052965;28;20044;-72
2022/12/27 08:04:37;;;;;;;51.03;36.95;;;11.30;99.90;;;;;;5048360;28;20029;-71
2022/12/27 08:07:14;;;;;;;42.20;30.40;;;11.20;99.90;;;;;;5054711;28;20029;-76
2022/12/27 08:09:42;;;;;;;40.47;28.63;;;11.10;99.90;;;;;;5056821;28;20043;-72
2022/12/27 08:12:08;;;;;;;40.58;26.17;;;11.20;99.90;;;;;;5057156;28;20032;-75
2022/12/27 08:14:34;;;;;;;40.58;26.73;;;11.20;99.90;;;;;;5056563;28;20029;-75
2022/12/27 08:17:15;;;;;;;35.65;24.33;;;11.20;99.90;;;;;;5056529;28;20025;-75
2022/12/27 08:19:41;;;;;;;33.50;21.23;;;11.30;99.90;;;;;;5056765;28;20021;-71
2022/12/27 08:22:08;;;;;;;30.95;20.50;;;11.30;99.90;;;;;;5055912;28;20045;-71
2022/12/27 08:24:34;;;;;;;30.92;21.77;;;11.30;99.90;;;;;;5056456;28;20048;-71
2022/12/27 08:27:00;;;;;;;35.10;23.60;;;11.20;99.90;;;;;;5054021;28;20025;-71
2022/12/27 08:29:26;;;;;;;39.13;27.15;;;11.30;99.90;;;;;;5045658;28;20083;-71
2022/12/27 08:31:51;;;;;;;45.10;31.75;;;11.30;99.90;;;;;;5056415;28;20051;-71
2022/12/27 08:34:17;;;;;;;41.80;30.75;;;11.40;99.90;;;;;;5046604;28;20043;-71
2022/12/27 08:36:43;;;;;;;42.83;29.48;;;11.40;99.90;;;;;;5052315;28;20041;-75
2022/12/27 08:39:10;;;;;;;40.83;28.40;;;11.40;99.90;;;;;;5056598;28;20028;-75
2022/12/27 08:41:37;;;;;;;36.05;27.25;;;11.30;99.90;;;;;;5056095;28;20029;-70
2022/12/27 08:44:03;;;;;;;32.42;22.98;;;11.30;99.90;;;;;;5055635;28;20013;-70
2022/12/27 08:46:29;;;;;;;30.60;21.88;;;11.40;99.90;;;;;;5056180;28;20033;-70
2022/12/27 08:48:55;;;;;;;33.75;23.27;;;11.30;99.90;;;;;;5056141;28;20029;-73
2022/12/27 08:51:21;;;;;;;38.30;23.85;;;11.40;99.90;;;;;;5055965;28;20095;-72
2022/12/27 08:53:48;;;;;;;46.67;28.48;;;11.40;99.90;;;;;;5055758;28;20028;-71
2022/12/27 08:56:14;;;;;;;47.03;28.92;;;11.40;99.90;;;;;;5052767;28;20034;-72
2022/12/27 08:58:40;;;;;;;46.10;29.75;;;11.40;99.90;;;;;;5046394;28;20079;-71
2022/12/27 09:01:07;;;;;;;52.38;35.58;;;11.40;99.90;;;;;;5055846;28;20036;-76
2022/12/27 09:03:33;;;;;;;48.38;33.35;;;11.40;99.90;;;;;;5055484;28;20108;-71
2022/12/27 09:06:09;;;;;;;50.33;32.85;;;11.30;99.90;;;;;;5055433;28;20108;-71
2022/12/27 09:08:36;;;;;;;53.50;35.70;;;11.30;99.90;;;;;;5044130;28;20409;-71
2022/12/27 09:11:14;;;;;;;35.38;25.08;;;11.30;99.90;;;;;;5054491;28;20021;-71
2022/12/27 09:13:40;;;;;;;31.27;20.67;;;11.30;99.90;;;;;;5055410;28;20033;-70
2022/12/27 09:16:09;;;;;;;26.27;16.83;;;11.30;99.90;;;;;;5042327;28;20479;-71
2022/12/27 09:18:39;;;;;;;25.77;16.45;;;11.20;99.90;;;;;;5054579;28;20029;-71
2022/12/27 09:21:10;;;;;;;21.40;14.50;;;11.20;99.90;;;;;;5055259;28;20044;-71
2022/12/27 09:23:37;;;;;;;18.92;12.85;;;11.30;99.90;;;;;;5055125;28;20159;-75
2022/12/27 09:26:07;;;;;;;26.75;17.13;;;11.40;99.90;;;;;;5055561;28;20017;-71
2022/12/27 09:28:34;;;;;;;23.83;16.23;;;11.40;99.90;;;;;;5054965;28;20021;-77
2022/12/27 09:31:00;;;;;;;23.52;16.80;;;11.40;99.90;;;;;;5055158;28;20028;-71
2022/12/27 09:33:27;;;;;;;21.33;14.40;;;11.40;99.90;;;;;;5055141;28;20032;-71
2022/12/27 09:35:53;;;;;;;22.00;14.32;;;11.40;99.90;;;;;;5054812;28;20090;-72
2022/12/27 09:38:18;;;;;;;20.15;12.25;;;11.40;99.90;;;;;;5054584;28;20021;-76
2022/12/27 09:40:56;;;;;;;17.58;11.15;;;11.40;99.90;;;;;;5046766;28;20063;-71
2022/12/27 09:43:37;;;;;;;18.17;9.63;;;11.40;99.90;;;;;;5048526;28;20025;-72
2022/12/27 09:46:09;;;;;;;13.05;6.65;;;11.40;99.90;;;;;;5050050;28;20049;-72
2022/12/27 09:48:38;;;;;;;12.52;6.97;;;11.30;99.90;;;;;;5041477;28;20365;-72
2022/12/27 09:51:18;;;;;;;13.60;8.35;;;11.40;99.90;;;;;;5053902;28;20041;-72
2022/12/27 09:53:50;;;;;;;16.95;11.50;;;11.40;99.90;;;;;;5047749;28;20485;-71
2022/12/27 09:56:26;;;;;;;23.88;14.35;;;11.40;99.90;;;;;;5050545;28;20079;-71
2022/12/27 09:58:57;;;;;;;22.85;13.75;;;11.40;99.90;;;;;;5046123;28;20028;-72
2022/12/27 10:01:33;;;;;;;22.55;15.05;;;11.40;99.90;;;;;;5053580;28;20365;-76
2022/12/27 10:04:00;;;;;;;23.40;14.23;;;11.50;99.90;;;;;;5053932;28;20021;-74
2022/12/27 10:06:41;;;;;;;22.10;14.20;;;11.50;99.90;;;;;;5054662;28;20055;-71
2022/12/27 10:09:51;;;;;;;22.88;13.15;;;11.60;99.90;;;;;;5052659;28;20025;-70
2022/12/27 10:12:34;;;;;;;20.30;11.40;;;11.60;99.90;;;;;;4968881;28;20036;-71
2022/12/27 10:15:15;;;;;;;20.13;12.20;;;11.70;99.90;;;;;;4967154;28;20038;-71
2022/12/27 10:17:41;;;;;;;21.20;12.65;;;11.70;99.90;;;;;;4973689;28;20077;-71
2022/12/27 10:20:34;;;;;;;25.50;15.63;;;11.70;99.90;;;;;;4974502;28;20062;-71
2022/12/27 10:23:02;;;;;;;;;;;11.80;99.90;;;;;;4985598;28;20046;-71
2022/12/27 10:25:30;;;;;;;23.88;14.98;;;11.80;99.90;;;;;;4992807;28;19917;-71
2022/12/27 10:28:01;;;;;;;29.33;18.88;;;11.80;99.90;;;;;;4987553;28;20058;-71
2022/12/27 10:30:29;;;;;;;27.73;18.40;;;11.80;99.90;;;;;;4981717;28;20030;-71
2022/12/27 10:32:55;;;;;;;27.95;19.20;;;11.90;99.90;;;;;;4984951;28;20044;-71
2022/12/27 10:35:23;;;;;;;29.70;22.02;;;11.80;99.90;;;;;;4993093;28;20030;-76
2022/12/27 10:37:49;;;;;;;37.40;23.92;;;11.90;99.90;;;;;;4983204;28;20030;-76
2022/12/27 10:40:31;;;;;;;35.33;23.17;;;11.90;99.90;;;;;;4977518;28;20088;-71
2022/12/27 10:43:04;;;;;;;31.83;18.92;;;11.90;99.90;;;;;;4992572;28;20030;-70
2022/12/27 10:45:38;;;;;;;25.60;15.95;;;11.90;99.90;;;;;;5000957;28;20375;-70
2022/12/27 10:48:15;;;;;;;22.70;14.63;;;11.80;99.90;;;;;;5041880;28;20056;-70
2022/12/27 10:50:47;;;;;;;20.05;12.02;;;11.80;99.90;;;;;;5051061;28;20033;-75
2022/12/27 10:53:41;;;;;;;27.88;15.45;;;11.90;99.90;;;;;;5053233;28;20472;-71
2022/12/27 10:56:07;;;;;;;35.38;18.80;;;11.90;99.90;;;;;;5052991;28;20045;-70
2022/12/27 10:58:46;;;;;;;31.88;19.40;;;12.00;99.90;;;;;;5053739;28;20032;-70
2022/12/27 11:01:23;;;;;;;40.53;23.42;;;12.00;99.90;;;;;;5041386;28;20044;-70
2022/12/27 11:03:50;;;;;;;34.70;21.63;;;11.90;99.90;;;;;;5053362;28;20388;-69
2022/12/27 11:06:18;;;;;;;38.58;23.98;;;11.90;99.90;;;;;;5053711;28;20029;-69
2022/12/27 11:08:44;;;;;;;35.90;21.90;;;12.00;99.90;;;;;;5053423;28;20033;-69
2022/12/27 11:11:28;;;;;;;36.72;22.40;;;12.00;99.90;;;;;;5053478;28;20176;-69
2022/12/27 11:14:12;;;;;;;37.10;23.85;;;12.00;99.90;;;;;;5053353;28;20027;-69
2022/12/27 11:16:39;;;;;;;38.28;25.55;;;12.00;99.90;;;;;;5048207;28;20048;-69
2022/12/27 11:19:05;;;;;;;44.38;27.58;;;11.90;99.90;;;;;;5053289;28;20357;-69
2022/12/27 11:21:37;;;;;;;39.70;25.27;;;12.00;99.90;;;;;;5048470;28;20044;-69
2022/12/27 11:24:03;;;;;;;33.38;20.50;;;12.00;99.90;;;;;;5053438;28;20404;-69
2022/12/27 11:26:48;;;;;;;29.98;19.45;;;12.00;99.90;;;;;;5051594;28;20067;-69
2022/12/27 11:29:17;;;;;;;27.92;17.15;;;12.00;99.90;;;;;;5045726;28;20088;-70
2022/12/27 11:31:47;;;;;;;27.20;15.18;;;12.00;99.90;;;;;;5052165;28;20045;-70
2022/12/27 11:34:15;;;;;;;21.33;14.43;;;12.00;99.90;;;;;;5039416;28;20063;-70
2022/12/27 11:36:44;;;;;;;23.00;15.15;;;12.00;99.90;;;;;;5045771;28;20048;-69
2022/12/27 11:39:55;;;;;;;21.73;13.00;;;12.10;99.90;;;;;;5047987;28;20030;-70
2022/12/27 11:42:37;;;;;;;22.35;14.43;;;12.10;99.90;;;;;;5040985;28;20114;-69
2022/12/27 11:45:34;;;;;;;23.52;16.67;;;12.10;99.90;;;;;;5053119;28;20503;-69
2022/12/27 11:48:03;;;;;;;27.25;17.15;;;12.10;99.90;;;;;;5051030;28;20029;-69
2022/12/27 11:50:41;;;;;;;24.60;16.83;;;12.10;99.90;;;;;;5049606;28;20029;-70
2022/12/27 11:53:25;;;;;;;21.00;14.13;;;12.00;99.90;;;;;;5040711;28;20089;-70
2022/12/27 11:56:25;;;;;;;18.55;10.98;;;12.00;99.90;;;;;;5052597;28;20366;-69
2022/12/27 11:59:26;;;;;;;18.67;11.13;;;12.00;99.90;;;;;;5052060;28;20021;-69
2022/12/27 12:02:29;;;;;;;22.58;14.68;;;12.00;99.90;;;;;;5052870;28;20457;-70
2022/12/27 12:05:14;;;;;;;21.60;14.38;;;12.10;99.90;;;;;;5044743;28;20055;-69
2022/12/27 12:08:22;;;;;;;31.30;21.15;;;12.10;99.90;;;;;;5046819;28;20025;-69
2022/12/27 12:10:54;;;;;;;47.30;31.35;;;12.20;99.90;;;;;;4952750;29;20227;-69
2022/12/27 12:13:37;;;;;;;42.60;29.75;;;12.10;99.90;;;;;;4951987;29;20047;-69
2022/12/27 12:16:18;;;;;;;46.45;32.38;;;12.20;99.90;;;;;;4952712;29;20043;-70
2022/12/27 12:19:11;;;;;;;26.10;18.65;;;12.20;99.90;;;;;;4952719;29;20035;-69
2022/12/27 12:22:03;;;;;;;25.65;17.00;;;12.00;99.90;;;;;;4950964;29;20047;-70
2022/12/27 12:24:39;;;;;;;67.40;51.55;;;12.00;99.90;;;;;;4930719;28;20043;-70
2022/12/27 12:27:42;;;;;;;81.72;56.40;;;12.00;99.90;;;;;;4949003;28;20039;-71
2022/12/27 12:30:11;;;;;;;55.97;44.80;;;12.00;99.90;;;;;;4949828;28;20057;-71
2022/12/27 12:33:10;;;;;;;50.78;36.55;;;11.90;99.90;;;;;;4949643;28;20400;-73
2022/12/27 12:35:53;;;;;;;23.30;15.80;;;11.90;99.90;;;;;;4944138;28;20126;-70
2022/12/27 12:38:30;;;;;;;18.75;12.10;;;11.80;99.90;;;;;;4952372;28;20039;-70
2022/12/27 12:41:16;;;;;;;25.08;15.80;;;11.80;99.90;;;;;;4952278;28;20130;-70
2022/12/27 12:43:55;;;;;;;22.45;14.38;;;11.70;99.90;;;;;;4952674;28;20035;-70
2022/12/27 12:46:32;;;;;;;29.02;17.90;;;11.60;99.90;;;;;;4952499;28;20098;-72
2022/12/27 12:49:24;;;;;;;23.05;14.20;;;11.60;99.90;;;;;;5025107;28;20041;-70
2022/12/27 12:52:10;;;;;;;23.42;13.65;;;11.50;99.90;;;;;;4952017;29;20039;-71
2022/12/27 12:54:55;;;;;;;28.77;17.15;;;11.50;99.90;;;;;;4954860;29;20407;-71
2022/12/27 12:57:26;;;;;;;29.52;19.67;;;11.40;99.90;;;;;;4955803;29;20090;-71
2022/12/27 13:00:03;;;;;;;42.28;27.27;;;11.40;99.90;;;;;;4956096;29;20035;-71
2022/12/27 13:02:41;;;;;;;38.17;25.67;;;11.30;99.90;;;;;;4954313;29;20595;-70
2022/12/27 13:05:48;;;;;;;31.80;20.40;;;11.40;99.90;;;;;;4947046;29;20430;-70
2022/12/27 13:08:53;;;;;;;44.40;25.02;;;11.30;99.90;;;;;;4947148;29;20222;-71
2022/12/27 13:11:37;;;;;;;28.85;16.92;;;11.30;99.90;;;;;;4953049;29;20388;-71
2022/12/27 13:14:38;;;;;;;29.80;17.00;;;11.20;99.90;;;;;;4942041;29;20039;-71
2022/12/27 13:17:15;;;;;;;27.63;14.57;;;11.10;99.90;;;;;;4952882;29;20133;-71
2022/12/27 13:20:09;;;;;;;37.83;19.83;;;11.10;99.90;;;;;;4946861;29;20539;-71
2022/12/27 13:22:57;;;;;;;63.60;33.97;;;11.00;99.90;;;;;;4942171;29;20086;-71
2022/12/27 13:25:50;;;;;;;48.33;25.48;;;10.90;99.90;;;;;;4954509;29;20047;-70
2022/12/27 13:28:42;;;;;;;23.73;14.23;;;10.90;99.90;;;;;;4970447;28;20077;-70
2022/12/27 13:31:16;;;;;;;14.20;6.47;;;10.90;99.90;;;;;;5025596;28;20469;-70
2022/12/27 13:34:07;;;;;;;16.77;9.68;;;10.80;99.90;;;;;;5022507;28;20045;-70
2022/12/27 13:36:54;;;;;;;14.23;8.10;;;10.80;99.90;;;;;;5022098;28;20406;-71
2022/12/27 13:39:39;;;;;;;23.83;11.98;;;10.70;99.90;;;;;;5024116;28;20450;-71
2022/12/27 13:42:43;;;;;;;23.33;12.85;;;10.60;99.90;;;;;;5035278;28;20052;-71
2022/12/27 13:45:45;;;;;;;17.45;9.73;;;10.50;99.90;;;;;;5029792;28;20499;-71
2022/12/27 13:48:43;;;;;;;17.77;11.00;;;10.50;99.90;;;;;;5035373;28;20033;-71
2022/12/27 13:51:30;;;;;;;14.05;8.70;;;10.50;99.90;;;;;;5034235;28;20025;-71
2022/12/27 13:54:21;;;;;;;24.88;15.23;;;10.50;99.90;;;;;;5020937;28;20526;-71
2022/12/27 13:57:05;;;;;;;23.58;14.00;;;10.50;99.90;;;;;;5035000;28;20033;-71
2022/12/27 13:59:49;;;;;;;30.58;20.48;;;10.60;99.90;;;;;;5034166;28;20037;-70
2022/12/27 14:02:44;;;;;;;28.88;17.80;;;10.60;99.90;;;;;;5035085;28;20045;-71
2022/12/27 14:05:43;;;;;;;27.60;17.75;;;10.60;99.90;;;;;;5033558;28;20416;-71
2022/12/27 14:08:20;;;;;;;22.27;15.07;;;10.70;99.90;;;;;;5034588;28;20028;-70
2022/12/27 14:10:50;;;;;;;29.45;20.17;;;10.70;99.90;;;;;;5041008;28;20029;-70
2022/12/27 14:13:22;;;;;;;24.92;16.70;;;10.80;99.90;;;;;;5026039;28;20359;-70
2022/12/27 14:16:11;;;;;;;32.10;23.63;;;10.80;99.90;;;;;;5034586;28;20048;-70
2022/12/27 14:18:43;;;;;;;39.85;24.70;;;10.80;99.90;;;;;;4972811;28;20279;-71
2022/12/27 14:21:30;;;;;;;65.30;39.75;;;10.80;99.90;;;;;;4972815;28;20043;-73
2022/12/27 14:24:43;;;;;;;122.80;65.07;;;10.80;99.90;;;;;;4969009;28;20126;-72
2022/12/27 14:27:53;;;;;;;71.55;44.42;;;10.80;99.90;;;;;;4967384;28;20073;-72
2022/12/27 14:30:56;;;;;;;116.22;91.00;;;10.70;99.90;;;;;;4895962;29;20036;-72
2022/12/27 14:33:58;;;;;;;68.75;50.47;;;10.70;99.90;;;;;;4897110;29;20036;-72
2022/12/27 14:36:42;;;;;;;32.53;23.80;;;10.70;99.90;;;;;;4897091;29;20485;-72
2022/12/27 14:39:25;;;;;;;32.80;21.00;;;10.60;99.90;;;;;;4897056;29;20028;-72
2022/12/27 14:42:13;;;;;;;34.97;26.00;;;10.60;99.90;;;;;;4885374;29;20033;-71
2022/12/27 14:45:13;;;;;;;37.85;24.60;;;10.50;99.90;;;;;;4879871;29;20047;-71
2022/12/27 14:47:59;;;;;;;31.33;20.98;;;10.60;99.90;;;;;;4879110;29;20400;-72
2022/12/27 14:50:25;;;;;;;35.65;23.08;;;10.50;99.90;;;;;;4887828;29;20146;-73